Time;durP1;ratioP1;P1;durP2;ratioP2;P2;SDS_P1;SDS_P2;PMS_P1;PMS_P2;Temp;Humidity;BMP_temperature;BMP_pressure;BME280_temperature;BME280_humidity;BME280_pressure;Samples;Min_cycle;Max_cycle;Signal;HPM_P1;HPM_P2
2023/01/20 00:01:45;;;;;;;7.95;3.47;;;0.00;99.90;;;;;;5110968;28;20032;-67
2023/01/20 00:04:11;;;;;;;6.13;3.30;;;0.60;99.90;;;;;;5110326;28;20436;-66
2023/01/20 00:06:37;;;;;;;7.15;3.25;;;0.40;99.90;;;;;;5111370;28;20044;-67
2023/01/20 00:09:03;;;;;;;4.80;3.25;;;0.00;99.90;;;;;;5068897;28;20836;-65
2023/01/20 00:11:30;;;;;;;7.57;3.40;;;-0.10;99.90;;;;;;5111671;28;20067;-66
2023/01/20 00:13:58;;;;;;;6.57;3.60;;;-0.10;99.90;;;;;;5089098;28;20040;-66
2023/01/20 00:16:24;;;;;;;7.00;3.60;;;0.00;99.90;;;;;;5081261;28;20404;-66
2023/01/20 00:18:50;;;;;;;8.15;3.63;;;0.00;99.90;;;;;;5114043;28;20079;-66
2023/01/20 00:21:17;;;;;;;4.90;3.47;;;-0.10;99.90;;;;;;5110883;28;20035;-67
2023/01/20 00:23:43;;;;;;;5.55;3.70;;;0.10;99.90;;;;;;5071503;28;20147;-66
2023/01/20 00:26:11;;;;;;;6.70;3.80;;;-0.10;99.90;;;;;;5110098;28;20047;-66
2023/01/20 00:28:37;;;;;;;6.40;3.83;;;-0.10;99.90;;;;;;5107488;28;20493;-66
2023/01/20 00:31:30;;;;;;;7.03;4.15;;;-0.10;99.90;;;;;;5108465;28;20149;-68
2023/01/20 00:33:59;;;;;;;8.05;4.07;;;0.30;99.90;;;;;;5086606;28;20050;-67
2023/01/20 00:36:26;;;;;;;6.28;3.95;;;-0.10;99.90;;;;;;5087050;28;20134;-67
2023/01/20 00:38:52;;;;;;;7.70;4.20;;;-0.10;99.90;;;;;;5088441;28;20043;-68
2023/01/20 00:41:18;;;;;;;6.60;3.92;;;-0.10;99.90;;;;;;5091174;28;20051;-67
2023/01/20 00:43:44;;;;;;;8.68;4.20;;;-0.20;99.90;;;;;;5109984;28;20079;-64
2023/01/20 00:46:10;;;;;;;6.13;4.53;;;-0.20;99.90;;;;;;5102529;28;20445;-68
2023/01/20 00:48:37;;;;;;;6.00;4.20;;;-0.20;99.90;;;;;;5111607;28;20404;-67
2023/01/20 00:51:04;;;;;;;8.30;4.88;;;-0.20;99.90;;;;;;5099091;28;20063;-67
2023/01/20 00:53:29;;;;;;;11.70;5.13;;;-0.20;99.90;;;;;;5102942;28;20447;-66
2023/01/20 00:55:55;;;;;;;8.30;6.05;;;0.50;99.90;;;;;;5082337;28;20076;-66
2023/01/20 00:58:21;;;;;;;10.57;6.60;;;-0.20;99.90;;;;;;5090554;28;20036;-66
2023/01/20 01:00:48;;;;;;;11.52;7.60;;;-0.30;99.90;;;;;;5100370;28;20039;-66
2023/01/20 01:03:15;;;;;;;12.82;7.90;;;-0.30;99.90;;;;;;5076491;28;20071;-65
2023/01/20 01:05:41;;;;;;;11.63;8.68;;;-0.20;99.90;;;;;;5098099;28;20035;-66
2023/01/20 01:08:07;;;;;;;12.57;9.35;;;-0.30;99.90;;;;;;5101677;28;20051;-65
2023/01/20 01:10:32;;;;;;;18.48;13.25;;;0.10;99.90;;;;;;5112901;28;20067;-66
2023/01/20 01:13:03;;;;;;;17.85;12.20;;;-0.20;99.90;;;;;;5091467;28;20580;-66
2023/01/20 01:15:29;;;;;;;16.52;12.23;;;0.20;99.90;;;;;;5097907;28;20104;-66
2023/01/20 01:17:56;;;;;;;30.27;13.02;;;-0.20;99.90;;;;;;5065200;28;20057;-68
2023/01/20 01:20:22;;;;;;;41.10;15.02;;;-0.10;99.90;;;;;;5090130;28;20089;-66
2023/01/20 01:22:48;;;;;;;26.90;15.57;;;-0.10;99.90;;;;;;5097988;28;20508;-66
2023/01/20 01:25:13;;;;;;;28.30;16.73;;;-0.10;99.90;;;;;;5106059;28;20052;-68
2023/01/20 01:27:39;;;;;;;36.40;17.40;;;-0.10;99.90;;;;;;5079318;28;20039;-66
2023/01/20 01:30:05;;;;;;;48.20;18.63;;;-0.10;99.90;;;;;;5088950;28;20062;-66
2023/01/20 01:32:31;;;;;;;37.08;18.65;;;-0.10;99.90;;;;;;5091204;28;20035;-66
2023/01/20 01:34:57;;;;;;;29.38;18.20;;;0.00;99.90;;;;;;5095868;28;20510;-66
2023/01/20 01:37:23;;;;;;;50.00;19.42;;;0.00;99.90;;;;;;5089637;28;20374;-66
2023/01/20 01:39:48;;;;;;;41.22;20.50;;;0.00;99.90;;;;;;5101077;28;20119;-66
2023/01/20 01:42:18;;;;;;;31.10;18.55;;;0.00;99.90;;;;;;5101880;28;20055;-66
2023/01/20 01:45:22;;;;;;;28.02;18.33;;;0.00;99.90;;;;;;5096546;28;20121;-66
2023/01/20 01:47:54;;;;;;;30.05;19.02;;;0.00;99.90;;;;;;5099653;28;20439;-66
2023/01/20 01:50:24;;;;;;;37.47;18.42;;;0.00;99.90;;;;;;5110063;28;20060;-67
2023/01/20 01:52:52;;;;;;;33.75;20.15;;;0.10;99.90;;;;;;5062314;28;20040;-66
2023/01/20 01:55:22;;;;;;;34.10;19.38;;;0.10;99.90;;;;;;5096633;28;20051;-65
2023/01/20 01:57:49;;;;;;;32.88;18.77;;;0.50;99.90;;;;;;5081115;28;20082;-66
2023/01/20 02:00:15;;;;;;;31.33;19.33;;;0.00;99.90;;;;;;5105534;28;20044;-67
2023/01/20 02:02:44;;;;;;;30.33;18.88;;;0.10;99.90;;;;;;5086627;28;20113;-66
2023/01/20 02:05:12;;;;;;;31.17;19.00;;;0.00;99.90;;;;;;5086060;28;20174;-67
2023/01/20 02:07:38;;;;;;;25.70;16.80;;;0.00;99.90;;;;;;5102384;28;20147;-66
2023/01/20 02:10:04;;;;;;;24.02;17.50;;;0.00;99.90;;;;;;5080362;28;20043;-66
2023/01/20 02:12:30;;;;;;;25.38;17.05;;;-0.10;99.90;;;;;;5091270;28;20040;-66
2023/01/20 02:14:58;;;;;;;26.40;16.92;;;0.00;99.90;;;;;;5069708;28;20058;-66
2023/01/20 02:17:54;;;;;;;22.92;16.95;;;-0.10;99.90;;;;;;5091694;28;20408;-67
2023/01/20 02:20:23;;;;;;;25.02;16.60;;;-0.10;99.90;;;;;;5100323;28;20505;-66
2023/01/20 02:23:00;;;;;;;22.30;16.05;;;-0.10;99.90;;;;;;5082126;28;20083;-67
2023/01/20 02:25:39;;;;;;;20.95;15.80;;;-0.10;99.90;;;;;;5096872;28;20198;-67
2023/01/20 02:28:28;;;;;;;22.83;15.50;;;-0.20;99.90;;;;;;5102699;28;20086;-67
2023/01/20 02:30:53;;;;;;;22.80;15.10;;;-0.10;99.90;;;;;;5094578;28;20032;-67
2023/01/20 02:33:27;;;;;;;17.98;14.45;;;-0.20;99.90;;;;;;5097649;28;20748;-71
2023/01/20 02:36:01;;;;;;;20.00;14.07;;;-0.20;99.90;;;;;;5101860;28;20063;-67
2023/01/20 02:38:27;;;;;;;;;;;-0.20;99.90;;;;;;5109277;28;20035;-66
2023/01/20 02:41:11;;;;;;;20.33;14.68;;;-0.20;99.90;;;;;;5084502;28;19949;-67
2023/01/20 02:43:51;;;;;;;20.10;14.80;;;-0.20;99.90;;;;;;5094167;28;20044;-66
2023/01/20 02:46:43;;;;;;;23.50;15.60;;;-0.20;99.90;;;;;;5101610;28;20048;-66
2023/01/20 02:49:41;;;;;;;22.25;15.93;;;-0.20;99.90;;;;;;5086862;28;20177;-66
2023/01/20 02:52:13;;;;;;;21.45;16.23;;;-0.20;99.90;;;;;;5034245;28;20066;-67
2023/01/20 02:54:44;;;;;;;21.52;15.93;;;-0.30;99.90;;;;;;5098481;28;20043;-67
2023/01/20 02:57:14;;;;;;;23.05;16.17;;;0.20;99.90;;;;;;5077577;28;20084;-67
2023/01/20 02:59:45;;;;;;;22.08;16.45;;;-0.20;99.90;;;;;;5100462;28;20451;-67
2023/01/20 03:02:18;;;;;;;23.95;16.90;;;-0.20;99.90;;;;;;5087015;28;20051;-67
2023/01/20 03:05:09;;;;;;;24.95;18.58;;;-0.10;99.90;;;;;;5088859;28;20039;-67
2023/01/20 03:07:38;;;;;;;27.40;18.60;;;-0.10;99.90;;;;;;5107195;28;20035;-66
2023/01/20 03:10:08;;;;;;;26.42;17.63;;;0.00;99.90;;;;;;5105902;28;20043;-67
2023/01/20 03:12:53;;;;;;;25.38;19.15;;;-0.10;99.90;;;;;;5085835;28;20078;-66
2023/01/20 03:15:24;;;;;;;28.27;18.83;;;-0.10;99.90;;;;;;5101909;28;20036;-67
2023/01/20 03:17:51;;;;;;;26.10;19.38;;;-0.10;99.90;;;;;;5080943;28;20048;-67
2023/01/20 03:20:17;;;;;;;26.50;19.15;;;-0.10;99.90;;;;;;5104966;28;20055;-67
2023/01/20 03:22:42;;;;;;;28.92;19.23;;;-0.10;99.90;;;;;;5110535;28;20088;-67
2023/01/20 03:25:10;;;;;;;27.17;19.40;;;-0.20;99.90;;;;;;5110282;28;20043;-67
2023/01/20 03:27:36;;;;;;;25.48;19.83;;;-0.20;99.90;;;;;;5112745;28;20165;-65
2023/01/20 03:30:04;;;;;;;28.55;20.88;;;-0.10;99.90;;;;;;5113193;28;20122;-65
2023/01/20 03:32:31;;;;;;;27.20;20.50;;;-0.20;99.90;;;;;;5088487;28;20059;-65
2023/01/20 03:34:58;;;;;;;28.02;21.17;;;0.00;99.90;;;;;;5087665;28;20062;-65
2023/01/20 03:37:24;;;;;;;26.02;20.05;;;-0.10;99.90;;;;;;5096174;28;20082;-66
2023/01/20 03:39:50;;;;;;;30.23;22.48;;;-0.10;99.90;;;;;;5113343;28;20089;-68
2023/01/20 03:42:51;;;;;;;28.10;20.70;;;0.20;99.90;;;;;;5076415;28;20545;-66
2023/01/20 03:45:30;;;;;;;30.42;22.60;;;0.00;99.90;;;;;;5110068;28;20051;-66
2023/01/20 03:48:08;;;;;;;30.80;18.85;;;0.00;99.90;;;;;;5079728;28;20083;-66
2023/01/20 03:50:48;;;;;;;30.40;22.83;;;0.00;99.90;;;;;;5080724;28;20048;-68
2023/01/20 03:53:33;;;;;;;33.08;21.58;;;0.00;99.90;;;;;;5110400;28;20104;-66
2023/01/20 03:56:11;;;;;;;33.40;23.95;;;0.00;99.90;;;;;;5079488;28;20055;-67
2023/01/20 03:58:42;;;;;;;33.40;24.67;;;0.10;99.90;;;;;;5097495;28;20169;-71
2023/01/20 04:01:10;;;;;;;36.83;24.55;;;0.10;99.90;;;;;;5095894;28;20047;-66
2023/01/20 04:03:41;;;;;;;37.83;24.55;;;0.10;99.90;;;;;;5106275;28;20043;-66
2023/01/20 04:06:10;;;;;;;35.28;25.00;;;0.10;99.90;;;;;;5101248;28;20079;-67
2023/01/20 04:08:42;;;;;;;40.42;25.98;;;0.20;99.90;;;;;;5105120;28;20040;-66
2023/01/20 04:11:08;;;;;;;38.45;25.65;;;0.10;99.90;;;;;;5081661;28;20481;-65
2023/01/20 04:13:34;;;;;;;38.83;26.13;;;0.10;99.90;;;;;;5112844;28;20054;-67
2023/01/20 04:16:02;;;;;;;36.05;25.92;;;0.20;99.90;;;;;;5091383;28;20614;-66
2023/01/20 04:18:27;;;;;;;38.65;26.35;;;0.20;99.90;;;;;;5099009;28;20047;-67
2023/01/20 04:21:00;;;;;;;42.10;26.10;;;0.20;99.90;;;;;;5108043;28;20143;-66
2023/01/20 04:23:38;;;;;;;39.40;24.85;;;0.50;99.90;;;;;;5080965;28;20133;-66
2023/01/20 04:26:04;;;;;;;39.63;25.92;;;0.20;99.90;;;;;;5098227;28;20047;-65
2023/01/20 04:28:31;;;;;;;36.78;25.27;;;0.10;99.90;;;;;;5098017;28;20046;-66
2023/01/20 04:30:56;;;;;;;39.13;26.08;;;0.90;99.90;;;;;;5097377;28;20101;-66
2023/01/20 04:33:22;;;;;;;40.17;25.23;;;0.20;99.90;;;;;;5068125;28;20386;-66
2023/01/20 04:35:48;;;;;;;33.95;23.65;;;0.20;99.90;;;;;;5106537;28;20127;-68
2023/01/20 04:38:13;;;;;;;39.55;26.63;;;0.20;99.90;;;;;;5088271;28;20378;-65
2023/01/20 04:40:39;;;;;;;39.03;25.38;;;0.20;99.90;;;;;;5084206;28;20039;-65
2023/01/20 04:43:05;;;;;;;37.78;25.50;;;0.20;99.90;;;;;;5081833;28;20873;-66
2023/01/20 04:45:30;;;;;;;38.00;24.83;;;0.20;99.90;;;;;;5102506;28;20048;-65
2023/01/20 04:47:56;;;;;;;39.03;24.75;;;0.70;99.90;;;;;;5085566;28;20047;-66
2023/01/20 04:50:22;;;;;;;37.25;24.58;;;0.20;99.90;;;;;;5108015;28;20051;-67
2023/01/20 04:52:47;;;;;;;37.20;24.60;;;0.10;99.90;;;;;;5093131;28;20389;-68
2023/01/20 04:55:13;;;;;;;35.30;23.75;;;0.60;99.90;;;;;;5111685;28;20048;-66
2023/01/20 04:57:39;;;;;;;37.30;23.17;;;0.10;99.90;;;;;;5103485;28;20051;-66
2023/01/20 05:00:06;;;;;;;35.45;22.33;;;0.10;99.90;;;;;;5073175;28;20058;-66
2023/01/20 05:02:32;;;;;;;37.97;23.15;;;0.10;99.90;;;;;;5103849;28;20070;-66
2023/01/20 05:04:57;;;;;;;35.58;22.35;;;0.20;99.90;;;;;;5075815;28;20040;-66
2023/01/20 05:07:23;;;;;;;33.72;21.33;;;0.10;99.90;;;;;;5105715;28;20043;-67
2023/01/20 05:09:49;;;;;;;34.42;22.20;;;0.10;99.90;;;;;;5088121;28;20040;-71
2023/01/20 05:12:14;;;;;;;33.85;21.45;;;0.40;99.90;;;;;;5103790;28;20040;-67
2023/01/20 05:14:40;;;;;;;31.95;21.80;;;-0.40;99.90;;;;;;5099775;28;20489;-66
2023/01/20 05:17:06;;;;;;;34.88;22.00;;;0.20;99.90;;;;;;5112258;28;20096;-66
2023/01/20 05:19:31;;;;;;;35.03;21.75;;;0.10;99.90;;;;;;5091632;28;20043;-66
2023/01/20 05:21:59;;;;;;;31.02;19.88;;;0.10;99.90;;;;;;5105390;28;20108;-66
2023/01/20 05:24:24;;;;;;;34.25;22.38;;;0.00;99.90;;;;;;5095329;28;20097;-66
2023/01/20 05:26:50;;;;;;;34.10;22.80;;;0.00;99.90;;;;;;5101367;28;20043;-70
2023/01/20 05:29:16;;;;;;;34.10;22.17;;;0.00;99.90;;;;;;5085842;28;20035;-65
2023/01/20 05:31:42;;;;;;;34.55;22.60;;;0.30;99.90;;;;;;5094886;28;20036;-67
2023/01/20 05:34:08;;;;;;;33.58;21.88;;;0.00;99.90;;;;;;5093852;28;20520;-67
2023/01/20 05:36:34;;;;;;;32.95;21.42;;;0.10;99.90;;;;;;5101859;28;20043;-66
2023/01/20 05:39:00;;;;;;;32.13;21.13;;;0.10;99.90;;;;;;5111455;28;20396;-67
2023/01/20 05:41:26;;;;;;;32.92;21.88;;;0.00;99.90;;;;;;5100085;28;20050;-67
2023/01/20 05:43:54;;;;;;;33.25;20.40;;;0.00;99.90;;;;;;5110692;28;20088;-70
2023/01/20 05:46:20;;;;;;;32.33;20.88;;;0.50;99.90;;;;;;5103823;28;20044;-65
2023/01/20 05:48:46;;;;;;;32.45;21.10;;;0.00;99.90;;;;;;5104686;28;20063;-65
2023/01/20 05:51:12;;;;;;;31.80;20.80;;;0.10;99.90;;;;;;5099675;28;20043;-66
2023/01/20 05:53:37;;;;;;;33.33;20.35;;;0.00;99.90;;;;;;5076128;28;20565;-69
2023/01/20 05:56:04;;;;;;;35.00;21.63;;;0.10;99.90;;;;;;5086349;28;20051;-65
2023/01/20 05:58:31;;;;;;;29.80;20.17;;;0.00;99.90;;;;;;5076721;28;20074;-67
2023/01/20 06:01:09;;;;;;;32.45;20.10;;;0.10;99.90;;;;;;5083677;28;20732;-69
2023/01/20 06:03:35;;;;;;;32.00;20.77;;;0.50;99.90;;;;;;5100545;28;20070;-66
2023/01/20 06:06:06;;;;;;;32.15;19.15;;;0.00;99.90;;;;;;5107795;28;20454;-66
2023/01/20 06:08:33;;;;;;;35.85;19.83;;;0.10;99.90;;;;;;5097793;28;20043;-66
2023/01/20 06:10:59;;;;;;;31.83;18.58;;;0.00;99.90;;;;;;5109103;28;20107;-66
2023/01/20 06:13:24;;;;;;;32.10;21.35;;;0.00;99.90;;;;;;5103437;28;20127;-65
2023/01/20 06:15:54;;;;;;;32.00;21.77;;;0.00;99.90;;;;;;5099044;28;20047;-65
2023/01/20 06:18:21;;;;;;;31.17;21.67;;;0.00;99.90;;;;;;5109055;28;20052;-65
2023/01/20 06:20:47;;;;;;;30.27;14.25;;;0.00;99.90;;;;;;5110314;28;20047;-66
2023/01/20 06:23:13;;;;;;;29.88;16.33;;;0.10;99.90;;;;;;5110637;28;20480;-66
2023/01/20 06:25:39;;;;;;;32.92;21.58;;;0.40;99.90;;;;;;5104361;28;20354;-65
2023/01/20 06:28:04;;;;;;;32.50;17.88;;;0.00;99.90;;;;;;5087816;28;20048;-66
2023/01/20 06:30:30;;;;;;;34.88;21.10;;;0.50;99.90;;;;;;5110437;28;20510;-67
2023/01/20 06:32:56;;;;;;;35.25;21.67;;;0.00;99.90;;;;;;5092443;28;20028;-66
2023/01/20 06:35:23;;;;;;;38.00;22.70;;;0.00;99.90;;;;;;5084993;28;20565;-64
2023/01/20 06:37:49;;;;;;;35.58;22.67;;;0.00;99.90;;;;;;5103786;28;20116;-66
2023/01/20 06:40:15;;;;;;;34.75;21.95;;;0.00;99.90;;;;;;5102345;28;20044;-64
2023/01/20 06:42:41;;;;;;;33.00;18.60;;;0.00;99.90;;;;;;5077130;28;20059;-64
2023/01/20 06:45:07;;;;;;;38.25;24.02;;;0.80;99.90;;;;;;5095107;28;20047;-66
2023/01/20 06:47:33;;;;;;;38.30;24.23;;;0.00;99.90;;;;;;5114659;28;20078;-65
2023/01/20 06:49:59;;;;;;;36.88;25.20;;;0.30;99.90;;;;;;5098326;27;20076;-65
2023/01/20 06:52:25;;;;;;;40.95;23.92;;;0.10;99.90;;;;;;5072518;28;20401;-65
2023/01/20 06:54:50;;;;;;;37.30;22.15;;;0.00;99.90;;;;;;5093940;28;20114;-64
2023/01/20 06:57:16;;;;;;;30.50;18.48;;;0.00;99.90;;;;;;5081322;28;20043;-66
2023/01/20 06:59:42;;;;;;;32.50;20.23;;;0.10;99.90;;;;;;5100093;28;20043;-66
2023/01/20 07:02:11;;;;;;;34.97;19.08;;;0.20;99.90;;;;;;5061966;28;20428;-66
2023/01/20 07:04:37;;;;;;;32.90;20.70;;;0.10;99.90;;;;;;5105175;28;20096;-68
2023/01/20 07:07:03;;;;;;;35.67;22.60;;;0.10;99.90;;;;;;5105878;28;20055;-66
2023/01/20 07:09:29;;;;;;;31.88;19.58;;;0.20;99.90;;;;;;5108155;28;20036;-67
2023/01/20 07:11:54;;;;;;;37.40;24.88;;;0.10;99.90;;;;;;5080181;28;20075;-67
2023/01/20 07:14:20;;;;;;;36.00;23.90;;;0.10;99.90;;;;;;5083408;28;20047;-68
2023/01/20 07:16:46;;;;;;;30.88;17.88;;;0.10;99.90;;;;;;5078173;28;20051;-68
2023/01/20 07:19:12;;;;;;;32.85;19.88;;;0.20;99.90;;;;;;5097558;28;20043;-68
2023/01/20 07:21:38;;;;;;;34.42;22.27;;;0.10;99.90;;;;;;5084051;28;20043;-68
2023/01/20 07:24:04;;;;;;;34.03;23.73;;;0.10;99.90;;;;;;5096942;28;20050;-68
2023/01/20 07:26:30;;;;;;;29.95;20.83;;;0.10;99.90;;;;;;5075430;28;20477;-68
2023/01/20 07:28:57;;;;;;;34.53;23.63;;;0.60;99.90;;;;;;5106023;28;20397;-68
2023/01/20 07:31:25;;;;;;;31.70;20.38;;;0.30;99.90;;;;;;5096642;28;20044;-69
2023/01/20 07:33:53;;;;;;;31.83;20.52;;;0.20;99.90;;;;;;5108416;28;20060;-68
2023/01/20 07:36:19;;;;;;;32.40;20.95;;;0.20;99.90;;;;;;5078017;28;20086;-68
2023/01/20 07:38:51;;;;;;;34.97;22.95;;;0.10;99.90;;;;;;5097031;28;20468;-70
2023/01/20 07:41:18;;;;;;;30.30;20.15;;;0.10;99.90;;;;;;5080965;28;20052;-69
2023/01/20 07:43:49;;;;;;;31.65;21.05;;;0.20;99.90;;;;;;5107481;28;20110;-69
2023/01/20 07:46:15;;;;;;;30.88;20.30;;;0.60;99.90;;;;;;5083457;28;20138;-69
2023/01/20 07:48:41;;;;;;;34.55;23.08;;;0.20;99.90;;;;;;5089282;28;20489;-68
2023/01/20 07:51:10;;;;;;;35.58;23.08;;;0.20;99.90;;;;;;5087038;28;20086;-68
2023/01/20 07:53:38;;;;;;;40.55;25.85;;;0.10;99.90;;;;;;5085077;28;20052;-69
2023/01/20 07:56:11;;;;;;;35.72;22.35;;;0.10;99.90;;;;;;5098974;28;20044;-69
2023/01/20 07:58:37;;;;;;;36.08;25.20;;;0.10;99.90;;;;;;5104716;28;20154;-70
2023/01/20 08:01:12;;;;;;;40.00;26.45;;;0.20;99.90;;;;;;5092851;28;20052;-69
2023/01/20 08:03:38;;;;;;;;;;;0.10;99.90;;;;;;5092977;28;20122;-69
2023/01/20 08:06:05;;;;;;;29.65;18.42;;;0.60;99.90;;;;;;5109103;28;19981;-69
2023/01/20 08:08:32;;;;;;;35.60;24.08;;;0.20;99.90;;;;;;5111305;28;20063;-69
2023/01/20 08:11:00;;;;;;;32.13;20.08;;;0.20;99.90;;;;;;5072715;28;20056;-68
2023/01/20 08:13:29;;;;;;;39.92;25.13;;;0.50;99.90;;;;;;5113436;28;20067;-70
2023/01/20 08:15:58;;;;;;;44.28;27.50;;;0.30;99.90;;;;;;5080827;28;20135;-69
2023/01/20 08:18:23;;;;;;;41.92;27.13;;;0.20;99.90;;;;;;5109520;28;20054;-68
2023/01/20 08:20:49;;;;;;;39.33;25.73;;;0.20;99.90;;;;;;5082292;28;20396;-69
2023/01/20 08:23:15;;;;;;;39.88;26.48;;;0.30;99.90;;;;;;5103601;28;20369;-72
2023/01/20 08:25:40;;;;;;;37.58;22.90;;;0.20;99.90;;;;;;5088985;28;20084;-70
2023/01/20 08:28:06;;;;;;;39.05;24.73;;;0.30;99.90;;;;;;5076374;28;20120;-69
2023/01/20 08:30:32;;;;;;;37.15;22.92;;;0.30;99.90;;;;;;5107789;28;20528;-69
2023/01/20 08:32:58;;;;;;;39.75;25.77;;;0.40;99.90;;;;;;5091044;28;20535;-68
2023/01/20 08:35:23;;;;;;;35.78;24.38;;;0.60;99.90;;;;;;5102316;28;20118;-70
2023/01/20 08:37:49;;;;;;;33.85;20.88;;;0.30;99.90;;;;;;5090655;28;20470;-70
2023/01/20 08:40:15;;;;;;;38.42;25.45;;;0.30;99.90;;;;;;5058342;28;20067;-70
2023/01/20 08:42:41;;;;;;;37.78;25.25;;;0.30;99.90;;;;;;5103663;28;20039;-69
2023/01/20 08:45:07;;;;;;;38.40;26.05;;;0.40;99.90;;;;;;5082422;28;20370;-69
2023/01/20 08:47:38;;;;;;;45.00;28.80;;;0.40;99.90;;;;;;5099834;28;20036;-70
2023/01/20 08:50:05;;;;;;;39.70;24.58;;;0.90;99.90;;;;;;5104864;28;20066;-70
2023/01/20 08:52:31;;;;;;;35.45;20.83;;;0.40;99.90;;;;;;5101039;28;20044;-69
2023/01/20 08:54:57;;;;;;;41.10;29.17;;;0.40;99.90;;;;;;5075385;28;20086;-70
2023/01/20 08:57:27;;;;;;;44.13;28.73;;;0.40;99.90;;;;;;5101838;28;20075;-70
2023/01/20 08:59:53;;;;;;;39.28;26.98;;;0.50;99.90;;;;;;5103876;28;20047;-70
2023/01/20 09:02:19;;;;;;;36.05;24.40;;;0.50;99.90;;;;;;5105160;28;20399;-75
2023/01/20 09:04:45;;;;;;;34.75;23.33;;;0.50;99.90;;;;;;5086154;28;20066;-70
2023/01/20 09:07:11;;;;;;;46.30;27.08;;;0.50;99.90;;;;;;5072673;28;20051;-70
2023/01/20 09:09:38;;;;;;;45.55;28.88;;;0.60;99.90;;;;;;5087269;28;20036;-69
2023/01/20 09:12:04;;;;;;;41.30;24.92;;;0.50;99.90;;;;;;5098094;28;20036;-70
2023/01/20 09:14:30;;;;;;;42.13;26.88;;;0.60;99.90;;;;;;5063466;28;20044;-72
2023/01/20 09:16:56;;;;;;;36.10;23.15;;;0.60;99.90;;;;;;5096270;28;20504;-72
2023/01/20 09:19:22;;;;;;;41.53;24.23;;;0.70;99.90;;;;;;5078495;28;20116;-71
2023/01/20 09:21:48;;;;;;;41.85;26.65;;;1.10;99.90;;;;;;5080155;28;20097;-70
2023/01/20 09:24:14;;;;;;;41.53;27.63;;;0.90;99.90;;;;;;5101576;28;20096;-70
2023/01/20 09:26:40;;;;;;;39.97;25.20;;;0.60;99.90;;;;;;5069829;28;20047;-71
2023/01/20 09:29:11;;;;;;;44.40;28.77;;;0.70;99.90;;;;;;5072358;28;20478;-70
2023/01/20 09:31:42;;;;;;;42.65;28.60;;;0.70;99.90;;;;;;5086811;28;20096;-70
2023/01/20 09:34:09;;;;;;;39.97;27.73;;;0.70;99.90;;;;;;5099973;28;20452;-70
2023/01/20 09:36:35;;;;;;;45.30;27.60;;;1.40;99.90;;;;;;5089181;28;20082;-71
2023/01/20 09:44:52;;;;;;;44.03;28.10;;;0.80;99.90;;;;;;5097021;28;20497;-71
2023/01/20 09:47:24;;;;;;;;;;;0.80;99.90;;;;;;5072892;28;20054;-69
2023/01/20 09:53:53;;;;;;;45.92;30.23;;;0.80;99.90;;;;;;5103163;28;20048;-69
2023/01/20 09:56:23;;;;;;;45.08;23.95;;;0.80;99.90;;;;;;4995026;28;20046;-70
2023/01/20 09:58:55;;;;;;;44.63;28.17;;;0.90;99.90;;;;;;5069983;28;20134;-70
2023/01/20 10:01:23;;;;;;;45.60;27.88;;;0.90;99.90;;;;;;5084515;28;20044;-68
2023/01/20 10:04:08;;;;;;;43.17;27.70;;;0.90;99.90;;;;;;5109839;28;20081;-68
2023/01/20 10:06:44;;;;;;;45.55;29.73;;;0.90;99.90;;;;;;5107109;28;20100;-69
2023/01/20 10:09:32;;;;;;;48.15;31.77;;;0.90;99.90;;;;;;5110270;28;20183;-69
2023/01/20 10:12:06;;;;;;;48.67;30.15;;;0.90;99.90;;;;;;5110316;28;20046;-71
2023/01/20 10:14:38;;;;;;;41.85;24.85;;;0.90;99.90;;;;;;5056728;28;20374;-69
2023/01/20 10:17:12;;;;;;;47.17;31.13;;;0.90;99.90;;;;;;5106905;28;20480;-70
2023/01/20 10:19:46;;;;;;;40.00;24.77;;;0.90;99.90;;;;;;5089290;28;20389;-70
2023/01/20 10:22:19;;;;;;;44.65;26.98;;;1.00;99.90;;;;;;5111944;28;20047;-70
2023/01/20 10:25:04;;;;;;;41.47;22.65;;;0.90;99.90;;;;;;5074989;28;20055;-69
2023/01/20 10:27:32;;;;;;;46.47;28.48;;;0.90;99.90;;;;;;5101460;28;20051;-69
2023/01/20 10:30:06;;;;;;;42.45;28.25;;;1.00;99.90;;;;;;5084265;28;20063;-70
2023/01/20 10:32:44;;;;;;;48.83;30.90;;;1.00;99.90;;;;;;5098834;28;20040;-76
2023/01/20 10:35:18;;;;;;;40.08;25.60;;;1.00;99.90;;;;;;5096786;28;20063;-69
2023/01/20 10:37:44;;;;;;;44.42;27.00;;;1.00;99.90;;;;;;5081123;28;20055;-70
2023/01/20 10:40:37;;;;;;;53.47;32.67;;;1.00;99.90;;;;;;5104144;28;20048;-70
2023/01/20 10:43:16;;;;;;;41.05;25.52;;;1.00;99.90;;;;;;5106408;28;20069;-67
2023/01/20 10:45:48;;;;;;;52.50;34.20;;;1.00;99.90;;;;;;5110886;28;20043;-73
2023/01/20 10:48:21;;;;;;;48.00;29.00;;;1.10;99.90;;;;;;5089306;28;20059;-70
2023/01/20 10:50:54;;;;;;;43.10;27.70;;;1.40;99.90;;;;;;5100577;28;20073;-71
2023/01/20 10:53:20;;;;;;;46.70;27.17;;;1.60;99.90;;;;;;5104024;28;20075;-68
2023/01/20 10:56:11;;;;;;;48.67;28.40;;;1.10;99.90;;;;;;5110598;28;20143;-69
2023/01/20 10:58:42;;;;;;;45.65;27.65;;;1.10;99.90;;;;;;5110619;28;20047;-69
2023/01/20 11:01:16;;;;;;;45.55;28.90;;;1.60;99.90;;;;;;5111301;28;20243;-69
2023/01/20 11:03:45;;;;;;;45.78;29.42;;;1.10;99.90;;;;;;5107167;28;20044;-69
2023/01/20 11:06:25;;;;;;;42.67;26.38;;;1.10;99.90;;;;;;5093108;28;20044;-70
2023/01/20 11:08:52;;;;;;;44.83;26.13;;;1.00;99.90;;;;;;5104559;28;20497;-70
2023/01/20 11:11:23;;;;;;;44.28;25.95;;;0.90;99.90;;;;;;5102435;28;20240;-69
2023/01/20 11:13:52;;;;;;;46.85;27.27;;;1.00;99.90;;;;;;5110503;28;20185;-69
2023/01/20 11:16:23;;;;;;;44.92;27.17;;;1.00;99.90;;;;;;5096984;28;20130;-69
2023/01/20 11:19:00;;;;;;;43.83;26.00;;;1.00;99.90;;;;;;5103110;28;20381;-69
2023/01/20 11:21:29;;;;;;;45.70;27.20;;;1.10;99.90;;;;;;5082385;28;20488;-70
2023/01/20 11:23:56;;;;;;;45.50;27.08;;;1.10;99.90;;;;;;5110581;28;20470;-69
2023/01/20 11:26:32;;;;;;;44.95;26.80;;;1.10;99.90;;;;;;5083647;28;20051;-69
2023/01/20 11:29:02;;;;;;;42.80;26.17;;;1.10;99.90;;;;;;5098779;28;20076;-69
2023/01/20 11:31:51;;;;;;;43.40;24.17;;;1.10;99.90;;;;;;5081543;28;20375;-68
2023/01/20 11:34:28;;;;;;;42.45;25.35;;;1.00;99.90;;;;;;5108811;28;20447;-69
2023/01/20 11:37:16;;;;;;;47.92;27.67;;;1.10;99.90;;;;;;5114537;28;20063;-69
2023/01/20 11:39:56;;;;;;;41.92;25.67;;;1.00;99.90;;;;;;5101641;28;20048;-69
2023/01/20 11:42:25;;;;;;;48.42;25.90;;;1.10;99.90;;;;;;5084278;28;20131;-69
2023/01/20 11:44:51;;;;;;;37.50;20.27;;;1.10;99.90;;;;;;5084023;28;20055;-69
2023/01/20 11:47:26;;;;;;;43.72;25.23;;;1.20;99.90;;;;;;5100122;28;20119;-69
2023/01/20 11:50:04;;;;;;;;;;;1.20;99.90;;;;;;5111005;28;20047;-72
2023/01/20 11:52:31;;;;;;;43.60;24.48;;;1.10;99.90;;;;;;5099331;28;19923;-69
2023/01/20 11:55:20;;;;;;;42.15;25.42;;;1.10;99.90;;;;;;5075889;28;20122;-68
2023/01/20 11:57:56;;;;;;;43.08;22.13;;;1.10;99.90;;;;;;5099342;28;20036;-70
2023/01/20 12:00:25;;;;;;;43.05;26.55;;;1.20;99.90;;;;;;5104924;28;20066;-69
2023/01/20 12:02:56;;;;;;;43.30;24.67;;;1.20;99.90;;;;;;5097127;28;20044;-67
2023/01/20 12:05:46;;;;;;;44.75;25.38;;;1.70;99.90;;;;;;5102997;28;20044;-68
2023/01/20 12:08:20;;;;;;;43.75;25.85;;;1.30;99.90;;;;;;5106609;28;20047;-69
2023/01/20 12:10:47;;;;;;;38.33;22.80;;;1.10;99.90;;;;;;5104450;28;20047;-70
2023/01/20 12:13:25;;;;;;;44.72;24.90;;;1.60;99.90;;;;;;5102539;28;20044;-69
2023/01/20 12:15:55;;;;;;;40.25;23.23;;;1.20;99.90;;;;;;5103962;28;20047;-69
2023/01/20 12:18:32;;;;;;;40.70;24.83;;;1.20;99.90;;;;;;5070198;28;20043;-69
2023/01/20 12:21:06;;;;;;;45.72;26.15;;;1.20;99.90;;;;;;5096868;28;20527;-75
2023/01/20 12:23:44;;;;;;;42.13;23.55;;;1.20;99.90;;;;;;5085091;28;20083;-69
2023/01/20 12:26:13;;;;;;;43.42;25.60;;;1.20;99.90;;;;;;5098107;28;20046;-70
2023/01/20 12:29:00;;;;;;;43.60;24.55;;;1.20;99.90;;;;;;5102621;28;20067;-70
2023/01/20 12:31:26;;;;;;;46.95;27.67;;;1.20;99.90;;;;;;5104861;28;20051;-69
2023/01/20 12:34:13;;;;;;;42.80;24.73;;;1.40;99.90;;;;;;5104284;28;20073;-69
2023/01/20 12:36:57;;;;;;;40.42;21.48;;;1.10;99.90;;;;;;5093954;28;20445;-71
2023/01/20 12:39:38;;;;;;;44.35;25.05;;;1.10;99.90;;;;;;5090387;28;20130;-71
2023/01/20 12:42:13;;;;;;;43.75;23.38;;;1.20;99.90;;;;;;5106774;28;20035;-70
2023/01/20 12:44:55;;;;;;;;;;;1.10;99.90;;;;;;5102266;28;20047;-68
2023/01/20 12:47:39;;;;;;;43.35;25.23;;;1.20;99.90;;;;;;5094790;28;19942;-69
2023/01/20 12:50:05;;;;;;;41.40;21.75;;;1.10;99.90;;;;;;5103863;28;20051;-70
2023/01/20 12:52:50;;;;;;;41.30;23.25;;;1.20;99.90;;;;;;5101777;28;20108;-69
2023/01/20 12:55:37;;;;;;;47.17;26.35;;;1.90;99.90;;;;;;5049043;28;20064;-72
2023/01/20 12:58:11;;;;;;;38.60;21.23;;;1.20;99.90;;;;;;5095019;28;20485;-70
2023/01/20 13:00:56;;;;;;;;;;;1.20;99.90;;;;;;5084015;28;20044;-69
2023/01/20 13:03:47;;;;;;;38.10;22.92;;;1.20;99.90;;;;;;5085948;28;20014;-69